METAR aérodromes proches

 

LFMN - Nice/Cote D'azur, France
Distance de la station: SO 20km
Mise à jour: 16-12-2017 11:30
dégagé
dégagé
 Wind from NO
Vent: NO 11 km/h
Température: 12°C
Point de rosée: -2°C
Humidité: 38%
Baromètre: 1005 hPa
Résumé: dégagé
Visibilité: supérieur à 10 km
2017/12/16 10:30 LFMN 161030Z 31006KT 270V340 CAVOK 12/M02 Q1005 NOSIG
LFMD - Cannes/Mandelieu, France
Distance de la station: OSO 43km
Mise à jour: 16-12-2017 11:30
dégagé
dégagé
 Wind from OSO
Vent: OSO 7 km/h
Température: 13°C
Point de rosée: -4°C
Humidité: 31%
Baromètre: 1006 hPa
Résumé: dégagé
Visibilité: supérieur à 10 km
2017/12/16 10:30 LFMD 161030Z AUTO 24004KT 180V290 CAVOK 13/M04 Q1006 NOSIG
 
LIMY - Malanotte Mounta, Italy
Distance de la station: NNE 64km
Mise à jour: 14-12-2017 06:55
Données obsolètes
dégagé
dégagé
 Wind from variable
Vent: variable 4 km/h
Température: 1°C
Point de rosée: -3°C
Humidité: 75%
Baromètre: 1008 hPa
Résumé: dégagé
Visibilité: supérieur à 10 km
2017/12/14 05:55 LIMY 140555Z VRB02KT CAVOK 01/M03 Q1008
LIMG - Albenga, Italy
Distance de la station: ENE 66km
Mise à jour: 16-12-2017 10:50
Données obsolètes
Few Clouds
Few Clouds
 Wind from N
Vent: N 19 km/h, Rafale: 41 km/h
Température: 12°C
Point de rosée: -8°C
Humidité: 24%
Baromètre: 1005 hPa
Nuages: Few Clouds
Visibilité: 10 km
Couches nuages: Few Clouds 1829 m
2017/12/16 09:50 LIMG 160950Z 35010G22KT 320V100 9999 FEW060 12/M08 Q1005
 
LIMU - Cape Mele, Italy
Distance de la station: ENE 66km
Mise à jour: 16-12-2017 10:55
Partiellement nuageux
Partiellement nuageux
 Wind from N
Vent: N 22 km/h, Rafale: 43 km/h
Température: 10°C
Wind Chill: 7°C
Point de rosée: -5°C
Humidité: 35%
Baromètre: 1002 hPa
Nuages: Partiellement nuageux
Visibilité: 10 km
Couches nuages: Partiellement nuageux 792 m
2017/12/16 09:55 LIMU 160955Z 35012G23KT 9999 SCT026 10/M05 Q1002 RMK BKN QUK 3 QUL 1 NE VIS MAR 40 KM VIS MIN 9999